Mahone Bay, Canada
Current Conditions -  °F | °C
As of 11:00 PM on Tuesday 21 Oct 2014 (Local Time) from CYAW Reporting Station
Overcast Overcast  
Wind Chill: 45°   Ceiling: 21000
Heat Index: 48°   Visibility: 15mi
Dew Point: 43°   Wind: 7mph
Humidity: 82%   Direction: 60°ENE
Pressure: 30.23"   Gusts: NA
Location:  44.43°N, 64.37°W
Report Text: CYAW 220200Z 06006KT 15SM FEW180 OVC210 09/06 A3023 RMK AC2CI6 DA-724FT SLP239
Loading
Personal Weather Stations






























Interactive Weather Map
Tropical Storm Tracking
New forecast layout! Learn more

10-Day Weather Forecast

Advertisements
Track Severe Weather on mobile